AirNav   TITAN Aviation Fuels
 
 333 users online  

93AZ Inde Motorsports Ranch Airport
Willcox, Arizona, USA

GOING TO WILLCOX?


FAA INFORMATION EFFECTIVE 07 OCTOBER 2021

Location

FAA Identifier: 93AZ
Lat/Long: 32-13-28.7500N 110-00-28.1500W
32-13.479167N 110-00.469167W
32.2246528,-110.0078194
(estimated)
Elevation: 4463 ft. / 1360 m (estimated)
From city: 10 miles W of WILLCOX, AZ
Time zone: UTC -7 (year round; does not observe DST)
Zip code: 85643

Airport Operations

Airport use: Private use. Permission required prior to landing
Activation date: 03/2011
Control tower: no
ARTCC: ALBUQUERQUE CENTER
FSS: PRESCOTT FLIGHT SERVICE STATION
Attendance: 0800-1700
Wind indicator: yes
Segmented circle: no

Nearby radio navigation aids

VOR radial/distance  VOR name  Freq  Var
SSOr253/37.9SAN SIMON VORTAC115.4013E

Airport Services

Runway Information

Runway 8/26

Dimensions: 3800 x 60 ft. / 1158 x 18 m
Surface: asphalt
RUNWAY 8  RUNWAY 26
Traffic pattern: leftleft

Airport Ownership and Management from official FAA records

Ownership: Privately-owned
Owner: MOTORSPORTS RANCH
9301 W. AIRPORT ROAD
WILLCOX, AZ 85643
Phone 520-384-0796
Manager: BRITTANY KIRK
9301 W. AIRPORT ROAD
WILLCOX, AZ 85643
Phone 520-384-0796
JOHN MABRY

Airport Operational Statistics

Aircraft based on the field: 1
Multi engine airplanes: 1
    

Additional Remarks

FOR CD CTC ALBUQUERQUE ARTCC AT 505-856-4861.

Instrument Procedures

There are no published instrument procedures at 93AZ.

Some nearby airports with instrument procedures:

P33 - Cochise County Airport (6 nm E)
KFHU - Sierra Vista Municipal Airport-Libby Army Airfield (42 nm SW)
KSAD - Safford Regional Airport (42 nm NE)
KDMA - Davis Monthan Air Force Base (45 nm W)
KTUS - Tucson International Airport (48 nm W)
 
Loc | Ops | Rwys | IFR | FBO | Links
Com | Nav | Svcs | Stats | Notes
Aerial photo
No photo
 
Sectional chart

 
Airport distance calculator
Flying to Inde Motorsports Ranch Airport? Find the distance to fly.

From to 93AZ

Sunrise and sunset
Times for 24-Oct-2021
 Local
(UTC-7)
 Zulu
(UTC)
Morning civil twilight06:0713:07
Sunrise06:3213:32
Sunset17:3700:37
Evening civil twilight18:0201:02

Current date and time
Zulu (UTC)  24-Oct-2021 07:58:12
Local (UTC-7)  24-Oct-2021 00:58:12
 
METAR
KFHU 
41nm SW 
240658Z AUTO 00000KT 10SM CLR 17/04 A3001 RMK AO2 SLP097 T01680037 402460109
KSAD 
42nm NE 
240751Z AUTO 11003KT 10SM CLR 11/02 A2990 RMK AO2 SLP091 T01110017
KALK 
43nm SW 
240656Z AUTO 26008KT 10SM CLR 16/04 A3002 RMK AO2 SLP083 T01560044 402440089
KDMA 
44nm W 
240658Z AUTO 14009KT 10SM CLR 16/04 A2989 RMK AO2 SLP088 T01590043 402920124 $
KTUS 
48nm W 
240753Z 12006KT 10SM CLR 17/05 A2991 RMK AO2 SLP090 T01720050
TAF
KDMA 
44nm W 
240600Z 2406/2512 VRB06KT 9999 BKN270 QNH2988INS TX30/2421Z TN10/2413Z
KTUS 
48nm W 
240520Z 2406/2506 22006KT P6SM FEW250 FM240900 15006KT P6SM SCT250 FM241800 23007G17KT P6SM BKN250 FM250300 24006KT P6SM SCT250
NOTAMs
Click for the latest NOTAMs
NOTAMs are issued by the DoD/FAA and will open in a separate window not controlled by AirNav.

 

 
 

Would you like to see your business listed on this page?

 If your business provides an interesting product or service to pilots, flight crews, aircraft, or users of the Inde Motorsports Ranch Airport, you should consider listing it here.  To start the listing process, click on the button below
 
Add a business
 

Other Pages about Inde Motorsports Ranch Airport

Update a link
 
Copyright © AirNav, LLC. All rights reserved. Privacy Policy  Contact